sensor_id;sensor_type;location;lat;lon;timestamp;temperature;humidity
67529;DHT22;54366;51.980;5.856;2023-02-11T00:00:15;7.60;82.20
67529;DHT22;54366;51.980;5.856;2023-02-11T00:02:42;7.50;81.60
67529;DHT22;54366;51.980;5.856;2023-02-11T00:05:08;7.60;81.70
67529;DHT22;54366;51.980;5.856;2023-02-11T00:07:35;7.60;81.70
67529;DHT22;54366;51.980;5.856;2023-02-11T00:10:03;7.60;81.70
67529;DHT22;54366;51.980;5.856;2023-02-11T00:12:29;7.50;81.60
67529;DHT22;54366;51.980;5.856;2023-02-11T00:14:55;7.60;81.70
67529;DHT22;54366;51.980;5.856;2023-02-11T00:17:22;7.60;81.60
67529;DHT22;54366;51.980;5.856;2023-02-11T00:19:52;7.50;81.50
67529;DHT22;54366;51.980;5.856;2023-02-11T00:22:19;7.50;81.60
67529;DHT22;54366;51.980;5.856;2023-02-11T00:24:45;7.60;81.60
67529;DHT22;54366;51.980;5.856;2023-02-11T00:27:12;7.50;81.60
67529;DHT22;54366;51.980;5.856;2023-02-11T00:29:38;7.50;81.60
67529;DHT22;54366;51.980;5.856;2023-02-11T00:32:05;7.60;81.60
67529;DHT22;54366;51.980;5.856;2023-02-11T00:34:34;7.50;81.60
67529;DHT22;54366;51.980;5.856;2023-02-11T00:37:02;7.50;81.60
67529;DHT22;54366;51.980;5.856;2023-02-11T00:39:28;7.50;81.60
67529;DHT22;54366;51.980;5.856;2023-02-11T00:41:55;7.50;81.50
67529;DHT22;54366;51.980;5.856;2023-02-11T00:44:22;7.50;81.60
67529;DHT22;54366;51.980;5.856;2023-02-11T00:46:48;7.50;81.60
67529;DHT22;54366;51.980;5.856;2023-02-11T00:49:16;7.50;81.50
67529;DHT22;54366;51.980;5.856;2023-02-11T00:51:42;7.50;82.10
67529;DHT22;54366;51.980;5.856;2023-02-11T00:54:09;7.60;81.60
67529;DHT22;54366;51.980;5.856;2023-02-11T00:56:35;7.60;81.50
67529;DHT22;54366;51.980;5.856;2023-02-11T00:59:01;7.60;81.50
67529;DHT22;54366;51.980;5.856;2023-02-11T01:01:28;7.60;81.40
67529;DHT22;54366;51.980;5.856;2023-02-11T01:03:54;7.60;81.40
67529;DHT22;54366;51.980;5.856;2023-02-11T01:06:22;7.60;81.30
67529;DHT22;54366;51.980;5.856;2023-02-11T01:08:49;7.60;81.30
67529;DHT22;54366;51.980;5.856;2023-02-11T01:11:18;7.60;81.40
67529;DHT22;54366;51.980;5.856;2023-02-11T01:13:46;7.60;81.30
67529;DHT22;54366;51.980;5.856;2023-02-11T01:16:17;7.60;81.30
67529;DHT22;54366;51.980;5.856;2023-02-11T01:18:45;7.50;81.20
67529;DHT22;54366;51.980;5.856;2023-02-11T01:21:12;7.60;81.40
67529;DHT22;54366;51.980;5.856;2023-02-11T01:23:38;7.60;81.30
67529;DHT22;54366;51.980;5.856;2023-02-11T01:26:04;7.60;81.30
67529;DHT22;54366;51.980;5.856;2023-02-11T01:28:32;7.60;81.30
67529;DHT22;54366;51.980;5.856;2023-02-11T01:31:00;7.60;81.30
67529;DHT22;54366;51.980;5.856;2023-02-11T01:33:27;7.50;81.20
67529;DHT22;54366;51.980;5.856;2023-02-11T01:35:53;7.50;81.20
67529;DHT22;54366;51.980;5.856;2023-02-11T01:38:22;7.50;81.20
67529;DHT22;54366;51.980;5.856;2023-02-11T01:40:52;7.50;81.20
67529;DHT22;54366;51.980;5.856;2023-02-11T01:43:19;7.50;81.20
67529;DHT22;54366;51.980;5.856;2023-02-11T01:48:56;7.40;81.40
67529;DHT22;54366;51.980;5.856;2023-02-11T01:51:48;7.50;81.30
67529;DHT22;54366;51.980;5.856;2023-02-11T01:54:16;7.50;81.30
67529;DHT22;54366;51.980;5.856;2023-02-11T01:57:26;7.40;81.20
67529;DHT22;54366;51.980;5.856;2023-02-11T02:00:19;7.40;81.20
67529;DHT22;54366;51.980;5.856;2023-02-11T02:03:15;7.50;81.20
67529;DHT22;54366;51.980;5.856;2023-02-11T02:05:58;7.50;81.20
67529;DHT22;54366;51.980;5.856;2023-02-11T02:08:41;7.50;81.20
67529;DHT22;54366;51.980;5.856;2023-02-11T02:11:08;7.40;81.20
67529;DHT22;54366;51.980;5.856;2023-02-11T02:13:37;7.40;81.40
67529;DHT22;54366;51.980;5.856;2023-02-11T02:16:06;7.50;81.30
67529;DHT22;54366;51.980;5.856;2023-02-11T02:25:02;7.50;81.30
67529;DHT22;54366;51.980;5.856;2023-02-11T02:28:14;7.50;81.60
67529;DHT22;54366;51.980;5.856;2023-02-11T02:31:11;7.50;81.40
67529;DHT22;54366;51.980;5.856;2023-02-11T02:34:12;7.50;81.40
67529;DHT22;54366;51.980;5.856;2023-02-11T02:37:07;7.50;81.40
67529;DHT22;54366;51.980;5.856;2023-02-11T02:39:35;7.50;81.30
67529;DHT22;54366;51.980;5.856;2023-02-11T02:42:02;7.50;81.40
67529;DHT22;54366;51.980;5.856;2023-02-11T02:44:30;7.50;81.70
67529;DHT22;54366;51.980;5.856;2023-02-11T02:46:57;7.40;81.40
67529;DHT22;54366;51.980;5.856;2023-02-11T02:49:23;7.50;81.50
67529;DHT22;54366;51.980;5.856;2023-02-11T02:55:29;7.40;81.40
67529;DHT22;54366;51.980;5.856;2023-02-11T02:58:47;7.40;81.50
67529;DHT22;54366;51.980;5.856;2023-02-11T03:01:31;7.50;81.50
67529;DHT22;54366;51.980;5.856;2023-02-11T03:07:44;7.50;81.80
67529;DHT22;54366;51.980;5.856;2023-02-11T03:09:55;7.50;82.00
67529;DHT22;54366;51.980;5.856;2023-02-11T03:12:26;7.40;81.90
67529;DHT22;54366;51.980;5.856;2023-02-11T03:14:54;7.40;81.90
67529;DHT22;54366;51.980;5.856;2023-02-11T03:17:22;7.40;82.10
67529;DHT22;54366;51.980;5.856;2023-02-11T03:19:50;7.40;82.10
67529;DHT22;54366;51.980;5.856;2023-02-11T03:22:29;7.40;82.00
67529;DHT22;54366;51.980;5.856;2023-02-11T03:24:57;7.40;82.10
67529;DHT22;54366;51.980;5.856;2023-02-11T03:27:38;7.40;82.30
67529;DHT22;54366;51.980;5.856;2023-02-11T03:30:17;7.40;82.30
67529;DHT22;54366;51.980;5.856;2023-02-11T03:32:51;7.40;83.00
67529;DHT22;54366;51.980;5.856;2023-02-11T03:35:23;7.40;82.30
67529;DHT22;54366;51.980;5.856;2023-02-11T03:38:08;7.40;82.30
67529;DHT22;54366;51.980;5.856;2023-02-11T03:40:38;7.40;82.80
67529;DHT22;54366;51.980;5.856;2023-02-11T03:43:17;7.40;82.30
67529;DHT22;54366;51.980;5.856;2023-02-11T03:45:46;7.40;82.30
67529;DHT22;54366;51.980;5.856;2023-02-11T03:48:19;7.40;82.20
67529;DHT22;54366;51.980;5.856;2023-02-11T03:50:50;7.40;82.30
67529;DHT22;54366;51.980;5.856;2023-02-11T03:53:18;7.40;82.50
67529;DHT22;54366;51.980;5.856;2023-02-11T03:55:46;7.40;82.50
67529;DHT22;54366;51.980;5.856;2023-02-11T03:58:14;7.40;82.70
67529;DHT22;54366;51.980;5.856;2023-02-11T04:00:42;7.40;82.70
67529;DHT22;54366;51.980;5.856;2023-02-11T04:03:09;7.40;83.30
67529;DHT22;54366;51.980;5.856;2023-02-11T04:05:36;7.40;82.70
67529;DHT22;54366;51.980;5.856;2023-02-11T04:08:03;7.40;82.70
67529;DHT22;54366;51.980;5.856;2023-02-11T04:10:30;7.40;83.00
67529;DHT22;54366;51.980;5.856;2023-02-11T04:12:56;7.40;82.90
67529;DHT22;54366;51.980;5.856;2023-02-11T04:15:23;7.40;82.80
67529;DHT22;54366;51.980;5.856;2023-02-11T04:17:49;7.40;83.00
67529;DHT22;54366;51.980;5.856;2023-02-11T04:20:16;7.40;82.90
67529;DHT22;54366;51.980;5.856;2023-02-11T04:22:42;7.40;82.80
67529;DHT22;54366;51.980;5.856;2023-02-11T04:25:09;7.40;83.00
67529;DHT22;54366;51.980;5.856;2023-02-11T04:27:36;7.50;83.00
67529;DHT22;54366;51.980;5.856;2023-02-11T04:30:04;7.40;83.20
67529;DHT22;54366;51.980;5.856;2023-02-11T04:32:31;7.50;83.00
67529;DHT22;54366;51.980;5.856;2023-02-11T04:34:57;7.50;83.00
67529;DHT22;54366;51.980;5.856;2023-02-11T04:37:23;7.50;83.10
67529;DHT22;54366;51.980;5.856;2023-02-11T04:39:50;7.50;83.00
67529;DHT22;54366;51.980;5.856;2023-02-11T04:42:16;7.50;83.10
67529;DHT22;54366;51.980;5.856;2023-02-11T04:44:42;7.50;83.20
67529;DHT22;54366;51.980;5.856;2023-02-11T04:47:08;7.50;83.10
67529;DHT22;54366;51.980;5.856;2023-02-11T04:49:37;7.50;83.10
67529;DHT22;54366;51.980;5.856;2023-02-11T04:52:04;7.50;83.20
67529;DHT22;54366;51.980;5.856;2023-02-11T04:54:30;7.50;83.30
67529;DHT22;54366;51.980;5.856;2023-02-11T04:56:56;7.50;83.30
67529;DHT22;54366;51.980;5.856;2023-02-11T04:59:23;7.50;83.30
67529;DHT22;54366;51.980;5.856;2023-02-11T05:01:49;7.50;83.30
67529;DHT22;54366;51.980;5.856;2023-02-11T05:04:16;7.50;83.80
67529;DHT22;54366;51.980;5.856;2023-02-11T05:06:42;7.50;83.30
67529;DHT22;54366;51.980;5.856;2023-02-11T05:09:10;7.50;83.30
67529;DHT22;54366;51.980;5.856;2023-02-11T05:11:37;7.50;83.30
67529;DHT22;54366;51.980;5.856;2023-02-11T05:14:05;7.50;83.30
67529;DHT22;54366;51.980;5.856;2023-02-11T05:16:32;7.50;83.50
67529;DHT22;54366;51.980;5.856;2023-02-11T05:18:58;7.50;83.30
67529;DHT22;54366;51.980;5.856;2023-02-11T05:21:24;7.50;83.60
67529;DHT22;54366;51.980;5.856;2023-02-11T05:23:51;7.50;83.60
67529;DHT22;54366;51.980;5.856;2023-02-11T05:26:17;7.50;83.40
67529;DHT22;54366;51.980;5.856;2023-02-11T05:28:44;7.50;83.40
67529;DHT22;54366;51.980;5.856;2023-02-11T05:31:11;7.50;83.30
67529;DHT22;54366;51.980;5.856;2023-02-11T05:33:40;7.50;83.30
67529;DHT22;54366;51.980;5.856;2023-02-11T05:36:09;7.50;83.30
67529;DHT22;54366;51.980;5.856;2023-02-11T05:38:36;7.50;83.40
67529;DHT22;54366;51.980;5.856;2023-02-11T05:41:04;7.50;83.30
67529;DHT22;54366;51.980;5.856;2023-02-11T05:43:30;7.50;83.30
67529;DHT22;54366;51.980;5.856;2023-02-11T05:45:57;7.50;83.30
67529;DHT22;54366;51.980;5.856;2023-02-11T05:48:24;7.50;83.20
67529;DHT22;54366;51.980;5.856;2023-02-11T05:50:50;7.50;83.30
67529;DHT22;54366;51.980;5.856;2023-02-11T05:53:16;7.50;83.30
67529;DHT22;54366;51.980;5.856;2023-02-11T05:55:42;7.50;83.30
67529;DHT22;54366;51.980;5.856;2023-02-11T05:58:09;7.50;83.30
67529;DHT22;54366;51.980;5.856;2023-02-11T06:00:35;7.60;83.40
67529;DHT22;54366;51.980;5.856;2023-02-11T06:03:02;7.50;83.30
67529;DHT22;54366;51.980;5.856;2023-02-11T06:05:29;7.50;83.40
67529;DHT22;54366;51.980;5.856;2023-02-11T06:07:56;7.50;83.40
67529;DHT22;54366;51.980;5.856;2023-02-11T06:10:23;7.50;83.40
67529;DHT22;54366;51.980;5.856;2023-02-11T06:12:49;7.50;83.40
67529;DHT22;54366;51.980;5.856;2023-02-11T06:15:15;7.50;83.40
67529;DHT22;54366;51.980;5.856;2023-02-11T06:17:42;7.50;83.40
67529;DHT22;54366;51.980;5.856;2023-02-11T06:20:08;7.50;83.50
67529;DHT22;54366;51.980;5.856;2023-02-11T06:22:35;7.50;83.80
67529;DHT22;54366;51.980;5.856;2023-02-11T06:25:02;7.50;83.70
67529;DHT22;54366;51.980;5.856;2023-02-11T06:27:29;7.50;83.60
67529;DHT22;54366;51.980;5.856;2023-02-11T06:29:55;7.50;83.50
67529;DHT22;54366;51.980;5.856;2023-02-11T06:32:21;7.50;83.50
67529;DHT22;54366;51.980;5.856;2023-02-11T06:34:48;7.50;83.40
67529;DHT22;54366;51.980;5.856;2023-02-11T06:37:14;7.50;83.40
67529;DHT22;54366;51.980;5.856;2023-02-11T06:39:42;7.50;83.40
67529;DHT22;54366;51.980;5.856;2023-02-11T06:42:09;7.50;83.50
67529;DHT22;54366;51.980;5.856;2023-02-11T06:44:35;7.50;83.50
67529;DHT22;54366;51.980;5.856;2023-02-11T06:47:01;7.50;83.50
67529;DHT22;54366;51.980;5.856;2023-02-11T06:49:28;7.50;83.50
67529;DHT22;54366;51.980;5.856;2023-02-11T06:51:54;7.50;83.70
67529;DHT22;54366;51.980;5.856;2023-02-11T06:54:20;7.50;83.70
67529;DHT22;54366;51.980;5.856;2023-02-11T06:56:47;7.50;83.70
67529;DHT22;54366;51.980;5.856;2023-02-11T06:59:17;7.50;83.70
67529;DHT22;54366;51.980;5.856;2023-02-11T07:01:45;7.50;83.80
67529;DHT22;54366;51.980;5.856;2023-02-11T07:04:12;7.50;83.80
67529;DHT22;54366;51.980;5.856;2023-02-11T07:06:40;7.50;83.90
67529;DHT22;54366;51.980;5.856;2023-02-11T07:09:07;7.50;83.80
67529;DHT22;54366;51.980;5.856;2023-02-11T07:11:33;7.50;83.80
67529;DHT22;54366;51.980;5.856;2023-02-11T07:14:03;7.50;83.70
67529;DHT22;54366;51.980;5.856;2023-02-11T07:16:30;7.50;83.80
67529;DHT22;54366;51.980;5.856;2023-02-11T07:18:57;7.50;83.80
67529;DHT22;54366;51.980;5.856;2023-02-11T07:21:23;7.50;83.80
67529;DHT22;54366;51.980;5.856;2023-02-11T07:23:50;7.50;84.00
67529;DHT22;54366;51.980;5.856;2023-02-11T07:26:19;7.50;84.00
67529;DHT22;54366;51.980;5.856;2023-02-11T07:28:48;7.50;84.00
67529;DHT22;54366;51.980;5.856;2023-02-11T07:31:18;7.60;84.10
67529;DHT22;54366;51.980;5.856;2023-02-11T07:33:44;7.60;84.10
67529;DHT22;54366;51.980;5.856;2023-02-11T07:36:12;7.50;84.00
67529;DHT22;54366;51.980;5.856;2023-02-11T07:38:39;7.60;84.00
67529;DHT22;54366;51.980;5.856;2023-02-11T07:41:11;7.60;84.10
67529;DHT22;54366;51.980;5.856;2023-02-11T07:43:38;7.60;84.20
67529;DHT22;54366;51.980;5.856;2023-02-11T07:46:11;7.60;84.30
67529;DHT22;54366;51.980;5.856;2023-02-11T07:48:38;7.60;84.20
67529;DHT22;54366;51.980;5.856;2023-02-11T07:51:15;7.60;84.20
67529;DHT22;54366;51.980;5.856;2023-02-11T07:53:42;7.60;84.10
67529;DHT22;54366;51.980;5.856;2023-02-11T07:56:10;7.60;84.10
67529;DHT22;54366;51.980;5.856;2023-02-11T07:58:36;7.60;84.10
67529;DHT22;54366;51.980;5.856;2023-02-11T08:01:05;7.60;84.10
67529;DHT22;54366;51.980;5.856;2023-02-11T08:03:33;7.70;84.00
67529;DHT22;54366;51.980;5.856;2023-02-11T08:06:08;7.60;84.10
67529;DHT22;54366;51.980;5.856;2023-02-11T08:08:35;7.70;84.10
67529;DHT22;54366;51.980;5.856;2023-02-11T08:11:10;7.70;84.30
67529;DHT22;54366;51.980;5.856;2023-02-11T08:13:37;7.70;84.70
67529;DHT22;54366;51.980;5.856;2023-02-11T08:16:04;7.70;84.50
67529;DHT22;54366;51.980;5.856;2023-02-11T08:18:31;7.70;84.60
67529;DHT22;54366;51.980;5.856;2023-02-11T08:21:05;7.70;84.60
67529;DHT22;54366;51.980;5.856;2023-02-11T08:23:32;7.80;84.80
67529;DHT22;54366;51.980;5.856;2023-02-11T08:26:03;7.80;84.80
67529;DHT22;54366;51.980;5.856;2023-02-11T08:28:30;7.80;84.70
67529;DHT22;54366;51.980;5.856;2023-02-11T08:30:56;7.80;84.90
67529;DHT22;54366;51.980;5.856;2023-02-11T08:33:22;7.80;84.70
67529;DHT22;54366;51.980;5.856;2023-02-11T08:35:49;7.80;85.10
67529;DHT22;54366;51.980;5.856;2023-02-11T08:38:15;7.90;85.20
67529;DHT22;54366;51.980;5.856;2023-02-11T08:40:42;7.80;85.10
67529;DHT22;54366;51.980;5.856;2023-02-11T08:43:08;7.90;85.10
67529;DHT22;54366;51.980;5.856;2023-02-11T08:45:35;7.90;85.10
67529;DHT22;54366;51.980;5.856;2023-02-11T08:48:02;7.90;85.10
67529;DHT22;54366;51.980;5.856;2023-02-11T08:50:28;8.00;85.00
67529;DHT22;54366;51.980;5.856;2023-02-11T08:52:54;8.00;85.00
67529;DHT22;54366;51.980;5.856;2023-02-11T08:55:21;8.00;85.10
67529;DHT22;54366;51.980;5.856;2023-02-11T08:57:47;8.00;85.00
67529;DHT22;54366;51.980;5.856;2023-02-11T09:00:14;8.10;85.00
67529;DHT22;54366;51.980;5.856;2023-02-11T09:02:41;8.10;85.10
67529;DHT22;54366;51.980;5.856;2023-02-11T09:05:14;8.20;85.10
67529;DHT22;54366;51.980;5.856;2023-02-11T09:07:40;8.20;85.10
67529;DHT22;54366;51.980;5.856;2023-02-11T09:10:07;8.20;85.00
67529;DHT22;54366;51.980;5.856;2023-02-11T09:12:33;8.20;84.90
67529;DHT22;54366;51.980;5.856;2023-02-11T09:14:59;8.30;85.00
67529;DHT22;54366;51.980;5.856;2023-02-11T09:17:26;8.30;85.00
67529;DHT22;54366;51.980;5.856;2023-02-11T09:19:52;8.30;84.90
67529;DHT22;54366;51.980;5.856;2023-02-11T09:22:18;8.40;85.00
67529;DHT22;54366;51.980;5.856;2023-02-11T09:24:45;8.40;85.10
67529;DHT22;54366;51.980;5.856;2023-02-11T09:27:11;8.40;85.10
67529;DHT22;54366;51.980;5.856;2023-02-11T09:29:37;8.40;85.10
67529;DHT22;54366;51.980;5.856;2023-02-11T09:32:04;8.50;85.00
67529;DHT22;54366;51.980;5.856;2023-02-11T09:34:30;8.50;85.10
67529;DHT22;54366;51.980;5.856;2023-02-11T09:36:56;8.60;85.10
67529;DHT22;54366;51.980;5.856;2023-02-11T09:39:23;8.60;85.10
67529;DHT22;54366;51.980;5.856;2023-02-11T09:45:12;8.70;85.00
67529;DHT22;54366;51.980;5.856;2023-02-11T09:48:11;8.70;85.00
67529;DHT22;54366;51.980;5.856;2023-02-11T09:50:42;8.70;84.80
67529;DHT22;54366;51.980;5.856;2023-02-11T09:53:39;8.70;84.90
67529;DHT22;54366;51.980;5.856;2023-02-11T09:56:12;8.80;84.90
67529;DHT22;54366;51.980;5.856;2023-02-11T09:58:40;8.80;84.80
67529;DHT22;54366;51.980;5.856;2023-02-11T10:01:40;8.90;84.80
67529;DHT22;54366;51.980;5.856;2023-02-11T10:05:01;8.90;84.80
67529;DHT22;54366;51.980;5.856;2023-02-11T10:08:57;8.90;84.80
67529;DHT22;54366;51.980;5.856;2023-02-11T10:11:00;8.90;84.70
67529;DHT22;54366;51.980;5.856;2023-02-11T10:23:21;9.00;84.60
67529;DHT22;54366;51.980;5.856;2023-02-11T10:25:52;9.00;84.60
67529;DHT22;54366;51.980;5.856;2023-02-11T10:28:22;9.10;84.60
67529;DHT22;54366;51.980;5.856;2023-02-11T10:31:07;9.10;84.60
67529;DHT22;54366;51.980;5.856;2023-02-11T10:33:49;9.10;84.60
67529;DHT22;54366;51.980;5.856;2023-02-11T10:36:17;9.10;84.50
67529;DHT22;54366;51.980;5.856;2023-02-11T10:38:44;9.20;85.10
67529;DHT22;54366;51.980;5.856;2023-02-11T10:41:18;9.20;84.50
67529;DHT22;54366;51.980;5.856;2023-02-11T10:43:45;9.30;84.50
67529;DHT22;54366;51.980;5.856;2023-02-11T10:46:17;9.30;84.40
67529;DHT22;54366;51.980;5.856;2023-02-11T10:48:48;9.30;84.40
67529;DHT22;54366;51.980;5.856;2023-02-11T10:51:21;9.30;84.40
67529;DHT22;54366;51.980;5.856;2023-02-11T10:54:11;9.40;84.40
67529;DHT22;54366;51.980;5.856;2023-02-11T10:56:49;9.40;84.30
67529;DHT22;54366;51.980;5.856;2023-02-11T10:59:32;9.40;84.20
67529;DHT22;54366;51.980;5.856;2023-02-11T11:02:04;9.50;84.30
67529;DHT22;54366;51.980;5.856;2023-02-11T11:04:39;9.50;84.10
67529;DHT22;54366;51.980;5.856;2023-02-11T11:07:27;9.50;84.10
67529;DHT22;54366;51.980;5.856;2023-02-11T11:10:06;9.60;84.10
67529;DHT22;54366;51.980;5.856;2023-02-11T11:12:47;9.70;84.10
67529;DHT22;54366;51.980;5.856;2023-02-11T11:15:25;9.80;83.90
67529;DHT22;54366;51.980;5.856;2023-02-11T11:18:16;9.80;83.70
67529;DHT22;54366;51.980;5.856;2023-02-11T11:21:00;9.90;83.70
67529;DHT22;54366;51.980;5.856;2023-02-11T11:23:29;10.00;83.70
67529;DHT22;54366;51.980;5.856;2023-02-11T11:26:10;10.00;83.60
67529;DHT22;54366;51.980;5.856;2023-02-11T11:29:01;10.00;83.50
67529;DHT22;54366;51.980;5.856;2023-02-11T11:31:48;10.00;83.40
67529;DHT22;54366;51.980;5.856;2023-02-11T11:34:31;10.00;83.40
67529;DHT22;54366;51.980;5.856;2023-02-11T11:37:00;10.00;83.40
67529;DHT22;54366;51.980;5.856;2023-02-11T11:39:35;10.10;83.40
67529;DHT22;54366;51.980;5.856;2023-02-11T11:42:04;10.10;83.40
67529;DHT22;54366;51.980;5.856;2023-02-11T11:44:37;10.20;83.40
67529;DHT22;54366;51.980;5.856;2023-02-11T11:47:24;10.30;83.20
67529;DHT22;54366;51.980;5.856;2023-02-11T11:50:48;10.30;83.10
67529;DHT22;54366;51.980;5.856;2023-02-11T11:55:49;10.40;82.40
67529;DHT22;54366;51.980;5.856;2023-02-11T11:58:20;10.40;82.50
67529;DHT22;54366;51.980;5.856;2023-02-11T12:01:11;10.50;82.50
67529;DHT22;54366;51.980;5.856;2023-02-11T12:04:16;10.50;82.00
67529;DHT22;54366;51.980;5.856;2023-02-11T12:07:21;10.70;81.70
67529;DHT22;54366;51.980;5.856;2023-02-11T12:10:47;10.70;81.20
67529;DHT22;54366;51.980;5.856;2023-02-11T12:13:50;10.80;81.00
67529;DHT22;54366;51.980;5.856;2023-02-11T12:17:02;10.90;80.20
67529;DHT22;54366;51.980;5.856;2023-02-11T12:19:58;10.90;80.00
67529;DHT22;54366;51.980;5.856;2023-02-11T12:23:28;11.00;79.90
67529;DHT22;54366;51.980;5.856;2023-02-11T12:33:00;11.20;79.30
67529;DHT22;54366;51.980;5.856;2023-02-11T12:38:56;11.30;79.00
67529;DHT22;54366;51.980;5.856;2023-02-11T12:41:49;11.40;78.60
67529;DHT22;54366;51.980;5.856;2023-02-11T12:51:13;11.60;77.50
67529;DHT22;54366;51.980;5.856;2023-02-11T12:56:56;11.60;77.80
67529;DHT22;54366;51.980;5.856;2023-02-11T12:59:43;11.60;78.00
67529;DHT22;54366;51.980;5.856;2023-02-11T13:05:31;11.60;77.40
67529;DHT22;54366;51.980;5.856;2023-02-11T13:08:04;11.60;77.10
67529;DHT22;54366;51.980;5.856;2023-02-11T13:10:36;11.60;77.10
67529;DHT22;54366;51.980;5.856;2023-02-11T13:13:30;11.60;77.00
67529;DHT22;54366;51.980;5.856;2023-02-11T13:16:04;11.60;76.80
67529;DHT22;54366;51.980;5.856;2023-02-11T13:19:17;11.50;76.40
67529;DHT22;54366;51.980;5.856;2023-02-11T13:22:33;11.50;76.50
67529;DHT22;54366;51.980;5.856;2023-02-11T13:25:23;11.50;76.90
67529;DHT22;54366;51.980;5.856;2023-02-11T13:27:58;11.50;77.00
67529;DHT22;54366;51.980;5.856;2023-02-11T13:30:33;11.50;76.90
67529;DHT22;54366;51.980;5.856;2023-02-11T13:33:18;11.60;77.10
67529;DHT22;54366;51.980;5.856;2023-02-11T13:38:35;11.60;77.30
67529;DHT22;54366;51.980;5.856;2023-02-11T13:41:14;11.60;77.50
67529;DHT22;54366;51.980;5.856;2023-02-11T13:43:42;11.60;77.10
67529;DHT22;54366;51.980;5.856;2023-02-11T13:46:12;11.70;76.70
67529;DHT22;54366;51.980;5.856;2023-02-11T13:48:47;11.70;77.00
67529;DHT22;54366;51.980;5.856;2023-02-11T13:51:17;11.60;77.20
67529;DHT22;54366;51.980;5.856;2023-02-11T13:53:56;11.60;77.40
67529;DHT22;54366;51.980;5.856;2023-02-11T13:56:38;11.60;77.30
67529;DHT22;54366;51.980;5.856;2023-02-11T13:59:47;11.60;77.80
67529;DHT22;54366;51.980;5.856;2023-02-11T14:02:33;11.60;77.10
67529;DHT22;54366;51.980;5.856;2023-02-11T14:05:29;11.60;77.30
67529;DHT22;54366;51.980;5.856;2023-02-11T14:08:18;11.50;77.50
67529;DHT22;54366;51.980;5.856;2023-02-11T14:14:26;11.50;77.70
67529;DHT22;54366;51.980;5.856;2023-02-11T14:17:25;11.50;77.90
67529;DHT22;54366;51.980;5.856;2023-02-11T14:19:52;11.50;78.00
67529;DHT22;54366;51.980;5.856;2023-02-11T14:22:40;11.50;78.10
67529;DHT22;54366;51.980;5.856;2023-02-11T14:25:21;11.60;78.10
67529;DHT22;54366;51.980;5.856;2023-02-11T14:28:22;11.60;78.10
67529;DHT22;54366;51.980;5.856;2023-02-11T14:31:01;11.60;78.20
67529;DHT22;54366;51.980;5.856;2023-02-11T14:37:20;11.70;77.80
67529;DHT22;54366;51.980;5.856;2023-02-11T14:40:53;11.70;77.60
67529;DHT22;54366;51.980;5.856;2023-02-11T14:43:06;11.70;77.30
67529;DHT22;54366;51.980;5.856;2023-02-11T14:45:36;11.70;77.50
67529;DHT22;54366;51.980;5.856;2023-02-11T14:48:29;11.70;77.70
67529;DHT22;54366;51.980;5.856;2023-02-11T14:51:34;11.70;77.70
67529;DHT22;54366;51.980;5.856;2023-02-11T14:54:15;11.70;77.70
67529;DHT22;54366;51.980;5.856;2023-02-11T14:56:42;11.70;77.80
67529;DHT22;54366;51.980;5.856;2023-02-11T14:59:21;11.70;77.90
67529;DHT22;54366;51.980;5.856;2023-02-11T15:01:51;11.70;77.80
67529;DHT22;54366;51.980;5.856;2023-02-11T15:04:30;11.70;77.90
67529;DHT22;54366;51.980;5.856;2023-02-11T15:07:01;11.70;77.80
67529;DHT22;54366;51.980;5.856;2023-02-11T15:09:49;11.70;77.90
67529;DHT22;54366;51.980;5.856;2023-02-11T15:12:21;11.70;77.70
67529;DHT22;54366;51.980;5.856;2023-02-11T15:14:53;11.70;77.90
67529;DHT22;54366;51.980;5.856;2023-02-11T15:17:23;11.70;78.00
67529;DHT22;54366;51.980;5.856;2023-02-11T15:19:54;11.70;78.00
67529;DHT22;54366;51.980;5.856;2023-02-11T15:22:31;11.60;78.00
67529;DHT22;54366;51.980;5.856;2023-02-11T15:25:12;11.70;78.00
67529;DHT22;54366;51.980;5.856;2023-02-11T15:27:43;11.60;77.90
67529;DHT22;54366;51.980;5.856;2023-02-11T15:30:35;11.60;78.00
67529;DHT22;54366;51.980;5.856;2023-02-11T15:33:03;11.60;77.90
67529;DHT22;54366;51.980;5.856;2023-02-11T15:35:37;11.60;78.10
67529;DHT22;54366;51.980;5.856;2023-02-11T15:38:04;11.60;78.10
67529;DHT22;54366;51.980;5.856;2023-02-11T15:40:33;11.50;77.90
67529;DHT22;54366;51.980;5.856;2023-02-11T15:43:04;11.50;78.00
67529;DHT22;54366;51.980;5.856;2023-02-11T15:45:43;11.50;78.10
67529;DHT22;54366;51.980;5.856;2023-02-11T15:48:40;11.50;78.10
67529;DHT22;54366;51.980;5.856;2023-02-11T15:54:16;11.40;78.00
67529;DHT22;54366;51.980;5.856;2023-02-11T15:56:46;11.40;78.20
67529;DHT22;54366;51.980;5.856;2023-02-11T15:59:25;11.40;78.30
67529;DHT22;54366;51.980;5.856;2023-02-11T16:02:08;11.40;78.10
67529;DHT22;54366;51.980;5.856;2023-02-11T16:04:53;11.30;78.20
67529;DHT22;54366;51.980;5.856;2023-02-11T16:07:48;11.20;78.00
67529;DHT22;54366;51.980;5.856;2023-02-11T16:15:51;11.10;77.90
67529;DHT22;54366;51.980;5.856;2023-02-11T16:18:29;11.00;77.90
67529;DHT22;54366;51.980;5.856;2023-02-11T16:20:58;11.00;77.70
67529;DHT22;54366;51.980;5.856;2023-02-11T16:23:28;11.00;77.80
67529;DHT22;54366;51.980;5.856;2023-02-11T16:26:02;10.90;77.80
67529;DHT22;54366;51.980;5.856;2023-02-11T16:28:31;10.80;78.00
67529;DHT22;54366;51.980;5.856;2023-02-11T16:30:57;10.80;77.90
67529;DHT22;54366;51.980;5.856;2023-02-11T16:33:24;10.80;77.90
67529;DHT22;54366;51.980;5.856;2023-02-11T16:35:50;10.80;78.00
67529;DHT22;54366;51.980;5.856;2023-02-11T16:38:17;10.70;78.00
67529;DHT22;54366;51.980;5.856;2023-02-11T16:40:44;10.70;78.50
67529;DHT22;54366;51.980;5.856;2023-02-11T16:43:16;10.60;77.90
67529;DHT22;54366;51.980;5.856;2023-02-11T16:45:43;10.60;77.90
67529;DHT22;54366;51.980;5.856;2023-02-11T16:48:14;10.50;77.90
67529;DHT22;54366;51.980;5.856;2023-02-11T16:50:47;10.50;77.80
67529;DHT22;54366;51.980;5.856;2023-02-11T16:53:18;10.50;77.70
67529;DHT22;54366;51.980;5.856;2023-02-11T16:55:45;10.40;77.60
67529;DHT22;54366;51.980;5.856;2023-02-11T16:58:12;10.40;77.70
67529;DHT22;54366;51.980;5.856;2023-02-11T17:00:38;10.30;77.80
67529;DHT22;54366;51.980;5.856;2023-02-11T17:03:06;10.30;77.90
67529;DHT22;54366;51.980;5.856;2023-02-11T17:05:33;10.20;77.90
67529;DHT22;54366;51.980;5.856;2023-02-11T17:08:00;10.20;78.10
67529;DHT22;54366;51.980;5.856;2023-02-11T17:10:28;10.20;78.30
67529;DHT22;54366;51.980;5.856;2023-02-11T17:12:56;10.10;78.90
67529;DHT22;54366;51.980;5.856;2023-02-11T17:15:22;10.20;78.40
67529;DHT22;54366;51.980;5.856;2023-02-11T17:17:48;10.10;78.30
67529;DHT22;54366;51.980;5.856;2023-02-11T17:20:15;10.10;78.30
67529;DHT22;54366;51.980;5.856;2023-02-11T17:22:41;10.10;78.30
67529;DHT22;54366;51.980;5.856;2023-02-11T17:25:08;10.00;78.40
67529;DHT22;54366;51.980;5.856;2023-02-11T17:27:34;10.00;78.40
67529;DHT22;54366;51.980;5.856;2023-02-11T17:30:01;10.00;78.50
67529;DHT22;54366;51.980;5.856;2023-02-11T17:32:27;9.90;78.30
67529;DHT22;54366;51.980;5.856;2023-02-11T17:34:53;9.90;78.40